sensor_id;sensor_type;location;lat;lon;timestamp;temperature;humidity
5520;DHT22;2782;52.362;10.012;2023-04-15T00:00:26;17.50;72.80
5520;DHT22;2782;52.362;10.012;2023-04-15T00:01:28;17.50;72.80
5520;DHT22;2782;52.362;10.012;2023-04-15T00:02:29;17.50;72.90
5520;DHT22;2782;52.362;10.012;2023-04-15T00:03:31;17.50;72.80
5520;DHT22;2782;52.362;10.012;2023-04-15T00:04:33;17.50;72.80
5520;DHT22;2782;52.362;10.012;2023-04-15T00:05:36;17.50;72.70
5520;DHT22;2782;52.362;10.012;2023-04-15T00:06:37;17.50;72.60
5520;DHT22;2782;52.362;10.012;2023-04-15T00:07:40;17.50;72.90
5520;DHT22;2782;52.362;10.012;2023-04-15T00:08:41;17.50;73.00
5520;DHT22;2782;52.362;10.012;2023-04-15T00:09:42;17.50;72.90
5520;DHT22;2782;52.362;10.012;2023-04-15T00:10:45;17.50;72.90
5520;DHT22;2782;52.362;10.012;2023-04-15T00:11:47;17.50;73.00
5520;DHT22;2782;52.362;10.012;2023-04-15T00:12:47;17.50;72.80
5520;DHT22;2782;52.362;10.012;2023-04-15T00:13:49;17.40;72.80
5520;DHT22;2782;52.362;10.012;2023-04-15T00:14:49;17.50;72.70
5520;DHT22;2782;52.362;10.012;2023-04-15T00:15:51;17.50;72.90
5520;DHT22;2782;52.362;10.012;2023-04-15T00:16:52;17.40;72.90
5520;DHT22;2782;52.362;10.012;2023-04-15T00:17:55;17.40;72.90
5520;DHT22;2782;52.362;10.012;2023-04-15T00:18:56;17.40;72.90
5520;DHT22;2782;52.362;10.012;2023-04-15T00:19:58;17.40;72.80
5520;DHT22;2782;52.362;10.012;2023-04-15T00:20:59;17.40;72.70
5520;DHT22;2782;52.362;10.012;2023-04-15T00:22:01;17.40;72.90
5520;DHT22;2782;52.362;10.012;2023-04-15T00:23:02;17.40;72.90
5520;DHT22;2782;52.362;10.012;2023-04-15T00:24:03;17.40;72.80
5520;DHT22;2782;52.362;10.012;2023-04-15T00:25:04;17.40;72.90
5520;DHT22;2782;52.362;10.012;2023-04-15T00:26:07;17.40;72.90
5520;DHT22;2782;52.362;10.012;2023-04-15T00:27:09;17.40;73.60
5520;DHT22;2782;52.362;10.012;2023-04-15T00:28:10;17.50;73.10
5520;DHT22;2782;52.362;10.012;2023-04-15T00:29:12;17.40;73.00
5520;DHT22;2782;52.362;10.012;2023-04-15T00:30:13;17.40;73.10
5520;DHT22;2782;52.362;10.012;2023-04-15T00:31:14;17.40;73.10
5520;DHT22;2782;52.362;10.012;2023-04-15T00:32:16;17.40;73.10
5520;DHT22;2782;52.362;10.012;2023-04-15T00:33:16;17.40;73.00
5520;DHT22;2782;52.362;10.012;2023-04-15T00:34:18;17.50;73.00
5520;DHT22;2782;52.362;10.012;2023-04-15T00:35:18;17.40;72.90
5520;DHT22;2782;52.362;10.012;2023-04-15T00:36:21;17.40;72.90
5520;DHT22;2782;52.362;10.012;2023-04-15T00:37:21;17.40;73.70
5520;DHT22;2782;52.362;10.012;2023-04-15T00:38:23;17.40;73.00
5520;DHT22;2782;52.362;10.012;2023-04-15T00:39:23;17.40;73.10
5520;DHT22;2782;52.362;10.012;2023-04-15T00:40:25;17.40;73.10
5520;DHT22;2782;52.362;10.012;2023-04-15T00:41:28;17.40;73.00
5520;DHT22;2782;52.362;10.012;2023-04-15T00:42:30;17.40;73.10
5520;DHT22;2782;52.362;10.012;2023-04-15T00:43:30;17.40;73.00
5520;DHT22;2782;52.362;10.012;2023-04-15T00:44:32;17.40;72.90
5520;DHT22;2782;52.362;10.012;2023-04-15T00:45:33;17.40;73.50
5520;DHT22;2782;52.362;10.012;2023-04-15T00:46:35;17.40;72.90
5520;DHT22;2782;52.362;10.012;2023-04-15T00:47:36;17.40;72.90
5520;DHT22;2782;52.362;10.012;2023-04-15T00:48:39;17.40;72.90
5520;DHT22;2782;52.362;10.012;2023-04-15T00:49:40;17.40;72.90
5520;DHT22;2782;52.362;10.012;2023-04-15T00:50:42;17.40;72.80
5520;DHT22;2782;52.362;10.012;2023-04-15T00:51:42;17.40;72.90
5520;DHT22;2782;52.362;10.012;2023-04-15T00:52:44;17.40;73.00
5520;DHT22;2782;52.362;10.012;2023-04-15T00:53:45;17.40;73.00
5520;DHT22;2782;52.362;10.012;2023-04-15T00:54:47;17.40;72.90
5520;DHT22;2782;52.362;10.012;2023-04-15T00:55:48;17.40;72.90
5520;DHT22;2782;52.362;10.012;2023-04-15T00:56:50;17.40;72.90
5520;DHT22;2782;52.362;10.012;2023-04-15T00:57:51;17.40;73.00
5520;DHT22;2782;52.362;10.012;2023-04-15T00:58:53;17.40;72.90
5520;DHT22;2782;52.362;10.012;2023-04-15T00:59:54;17.40;72.80
5520;DHT22;2782;52.362;10.012;2023-04-15T01:00:56;17.40;73.00
5520;DHT22;2782;52.362;10.012;2023-04-15T01:01:58;17.30;72.80
5520;DHT22;2782;52.362;10.012;2023-04-15T01:03:00;17.30;72.80
5520;DHT22;2782;52.362;10.012;2023-04-15T01:04:01;17.30;72.80
5520;DHT22;2782;52.362;10.012;2023-04-15T01:05:04;17.30;72.80
5520;DHT22;2782;52.362;10.012;2023-04-15T01:06:05;17.40;72.90
5520;DHT22;2782;52.362;10.012;2023-04-15T01:07:06;17.30;72.80
5520;DHT22;2782;52.362;10.012;2023-04-15T01:08:07;17.30;72.90
5520;DHT22;2782;52.362;10.012;2023-04-15T01:09:09;17.30;72.80
5520;DHT22;2782;52.362;10.012;2023-04-15T01:10:10;17.30;72.90
5520;DHT22;2782;52.362;10.012;2023-04-15T01:11:13;17.30;72.80
5520;DHT22;2782;52.362;10.012;2023-04-15T01:12:15;17.30;72.80
5520;DHT22;2782;52.362;10.012;2023-04-15T01:13:18;17.30;72.80
5520;DHT22;2782;52.362;10.012;2023-04-15T01:14:19;17.30;72.80
5520;DHT22;2782;52.362;10.012;2023-04-15T01:15:21;17.30;72.90
5520;DHT22;2782;52.362;10.012;2023-04-15T01:16:22;17.30;73.00
5520;DHT22;2782;52.362;10.012;2023-04-15T01:17:24;17.30;72.90
5520;DHT22;2782;52.362;10.012;2023-04-15T01:18:25;17.30;72.90
5520;DHT22;2782;52.362;10.012;2023-04-15T01:19:26;17.30;72.90
5520;DHT22;2782;52.362;10.012;2023-04-15T01:20:28;17.30;72.90
5520;DHT22;2782;52.362;10.012;2023-04-15T01:21:29;17.30;72.90
5520;DHT22;2782;52.362;10.012;2023-04-15T01:22:32;17.30;72.90
5520;DHT22;2782;52.362;10.012;2023-04-15T01:23:35;17.30;72.90
5520;DHT22;2782;52.362;10.012;2023-04-15T01:24:36;17.30;72.90
5520;DHT22;2782;52.362;10.012;2023-04-15T01:25:40;17.30;72.90
5520;DHT22;2782;52.362;10.012;2023-04-15T01:26:41;17.30;72.90
5520;DHT22;2782;52.362;10.012;2023-04-15T01:27:43;17.30;72.90
5520;DHT22;2782;52.362;10.012;2023-04-15T01:28:44;17.30;72.90
5520;DHT22;2782;52.362;10.012;2023-04-15T01:29:46;17.30;73.00
5520;DHT22;2782;52.362;10.012;2023-04-15T01:30:47;17.30;73.00
5520;DHT22;2782;52.362;10.012;2023-04-15T01:31:50;17.30;72.90
5520;DHT22;2782;52.362;10.012;2023-04-15T01:32:51;17.30;72.90
5520;DHT22;2782;52.362;10.012;2023-04-15T01:33:53;17.30;73.00
5520;DHT22;2782;52.362;10.012;2023-04-15T01:34:54;17.30;72.80
5520;DHT22;2782;52.362;10.012;2023-04-15T01:35:56;17.30;72.90
5520;DHT22;2782;52.362;10.012;2023-04-15T01:36:56;17.30;73.00
5520;DHT22;2782;52.362;10.012;2023-04-15T01:38:04;17.30;73.00
5520;DHT22;2782;52.362;10.012;2023-04-15T01:39:05;17.30;73.00
5520;DHT22;2782;52.362;10.012;2023-04-15T01:40:08;17.30;73.00
5520;DHT22;2782;52.362;10.012;2023-04-15T01:41:10;17.30;72.90
5520;DHT22;2782;52.362;10.012;2023-04-15T01:42:12;17.30;73.00
5520;DHT22;2782;52.362;10.012;2023-04-15T01:43:12;17.30;73.10
5520;DHT22;2782;52.362;10.012;2023-04-15T01:44:14;17.30;73.00
5520;DHT22;2782;52.362;10.012;2023-04-15T01:45:16;17.30;73.00
5520;DHT22;2782;52.362;10.012;2023-04-15T01:46:17;17.30;73.00
5520;DHT22;2782;52.362;10.012;2023-04-15T01:47:18;17.30;73.00
5520;DHT22;2782;52.362;10.012;2023-04-15T01:48:19;17.30;72.90
5520;DHT22;2782;52.362;10.012;2023-04-15T01:49:20;17.30;73.00
5520;DHT22;2782;52.362;10.012;2023-04-15T01:50:21;17.30;73.00
5520;DHT22;2782;52.362;10.012;2023-04-15T01:51:23;17.30;73.00
5520;DHT22;2782;52.362;10.012;2023-04-15T01:52:24;17.30;73.00
5520;DHT22;2782;52.362;10.012;2023-04-15T01:53:25;17.30;72.90
5520;DHT22;2782;52.362;10.012;2023-04-15T01:54:26;17.30;72.90
5520;DHT22;2782;52.362;10.012;2023-04-15T01:55:27;17.30;72.90
5520;DHT22;2782;52.362;10.012;2023-04-15T01:56:29;17.20;72.80
5520;DHT22;2782;52.362;10.012;2023-04-15T01:57:31;17.30;72.90
5520;DHT22;2782;52.362;10.012;2023-04-15T01:58:32;17.20;72.90
5520;DHT22;2782;52.362;10.012;2023-04-15T01:59:33;17.20;72.90
5520;DHT22;2782;52.362;10.012;2023-04-15T02:00:34;17.20;72.80
5520;DHT22;2782;52.362;10.012;2023-04-15T02:01:36;17.20;72.50
5520;DHT22;2782;52.362;10.012;2023-04-15T02:02:37;17.20;72.80
5520;DHT22;2782;52.362;10.012;2023-04-15T02:03:39;17.20;72.60
5520;DHT22;2782;52.362;10.012;2023-04-15T02:04:40;17.20;72.80
5520;DHT22;2782;52.362;10.012;2023-04-15T02:05:41;17.20;72.80
5520;DHT22;2782;52.362;10.012;2023-04-15T02:06:43;17.20;72.90
5520;DHT22;2782;52.362;10.012;2023-04-15T02:07:44;17.20;72.80
5520;DHT22;2782;52.362;10.012;2023-04-15T02:08:45;17.20;72.90
5520;DHT22;2782;52.362;10.012;2023-04-15T02:09:46;17.20;72.80
5520;DHT22;2782;52.362;10.012;2023-04-15T02:10:47;17.20;72.70
5520;DHT22;2782;52.362;10.012;2023-04-15T02:11:49;17.20;72.80
5520;DHT22;2782;52.362;10.012;2023-04-15T02:12:51;17.20;72.70
5520;DHT22;2782;52.362;10.012;2023-04-15T02:13:52;17.20;72.70
5520;DHT22;2782;52.362;10.012;2023-04-15T02:14:53;17.20;72.80
5520;DHT22;2782;52.362;10.012;2023-04-15T02:15:56;17.20;72.70
5520;DHT22;2782;52.362;10.012;2023-04-15T02:16:58;17.20;72.70
5520;DHT22;2782;52.362;10.012;2023-04-15T02:18:06;17.20;72.60
5520;DHT22;2782;52.362;10.012;2023-04-15T02:19:08;17.20;72.80
5520;DHT22;2782;52.362;10.012;2023-04-15T02:20:09;17.20;72.60
5520;DHT22;2782;52.362;10.012;2023-04-15T02:21:11;17.20;72.50
5520;DHT22;2782;52.362;10.012;2023-04-15T02:22:12;17.20;72.70
5520;DHT22;2782;52.362;10.012;2023-04-15T02:23:17;17.20;72.80
5520;DHT22;2782;52.362;10.012;2023-04-15T02:24:18;17.20;72.70
5520;DHT22;2782;52.362;10.012;2023-04-15T02:25:20;17.20;72.70
5520;DHT22;2782;52.362;10.012;2023-04-15T02:26:20;17.20;72.80
5520;DHT22;2782;52.362;10.012;2023-04-15T02:27:23;17.20;72.70
5520;DHT22;2782;52.362;10.012;2023-04-15T02:28:24;17.20;72.70
5520;DHT22;2782;52.362;10.012;2023-04-15T02:29:26;17.20;72.70
5520;DHT22;2782;52.362;10.012;2023-04-15T02:30:27;17.20;72.70
5520;DHT22;2782;52.362;10.012;2023-04-15T02:31:29;17.20;72.80
5520;DHT22;2782;52.362;10.012;2023-04-15T02:32:30;17.20;72.70
5520;DHT22;2782;52.362;10.012;2023-04-15T02:33:31;17.20;72.80
5520;DHT22;2782;52.362;10.012;2023-04-15T02:34:32;17.10;72.40
5520;DHT22;2782;52.362;10.012;2023-04-15T02:35:34;17.10;72.60
5520;DHT22;2782;52.362;10.012;2023-04-15T02:36:38;17.10;72.60
5520;DHT22;2782;52.362;10.012;2023-04-15T02:37:40;17.20;72.70
5520;DHT22;2782;52.362;10.012;2023-04-15T02:38:43;17.10;72.70
5520;DHT22;2782;52.362;10.012;2023-04-15T02:39:43;17.10;72.50
5520;DHT22;2782;52.362;10.012;2023-04-15T02:40:45;17.20;72.50
5520;DHT22;2782;52.362;10.012;2023-04-15T02:41:45;17.10;72.50
5520;DHT22;2782;52.362;10.012;2023-04-15T02:42:52;17.10;72.40
5520;DHT22;2782;52.362;10.012;2023-04-15T02:43:54;17.10;72.70
5520;DHT22;2782;52.362;10.012;2023-04-15T02:44:55;17.10;72.70
5520;DHT22;2782;52.362;10.012;2023-04-15T02:45:57;17.20;72.90
5520;DHT22;2782;52.362;10.012;2023-04-15T02:46:58;17.10;72.60
5520;DHT22;2782;52.362;10.012;2023-04-15T02:47:59;17.10;72.60
5520;DHT22;2782;52.362;10.012;2023-04-15T02:49:03;17.20;72.60
5520;DHT22;2782;52.362;10.012;2023-04-15T02:50:07;17.10;72.70
5520;DHT22;2782;52.362;10.012;2023-04-15T02:51:12;17.10;72.60
5520;DHT22;2782;52.362;10.012;2023-04-15T02:52:14;17.10;72.70
5520;DHT22;2782;52.362;10.012;2023-04-15T02:53:15;17.10;72.60
5520;DHT22;2782;52.362;10.012;2023-04-15T02:54:17;17.10;72.60
5520;DHT22;2782;52.362;10.012;2023-04-15T02:55:18;17.10;72.50
5520;DHT22;2782;52.362;10.012;2023-04-15T02:56:20;17.20;72.70
5520;DHT22;2782;52.362;10.012;2023-04-15T02:57:22;17.10;72.50
5520;DHT22;2782;52.362;10.012;2023-04-15T02:58:25;17.10;72.40
5520;DHT22;2782;52.362;10.012;2023-04-15T02:59:27;17.10;72.50
5520;DHT22;2782;52.362;10.012;2023-04-15T03:00:27;17.10;72.50
5520;DHT22;2782;52.362;10.012;2023-04-15T03:01:29;17.10;72.60
5520;DHT22;2782;52.362;10.012;2023-04-15T03:02:33;17.20;72.70
5520;DHT22;2782;52.362;10.012;2023-04-15T03:03:34;17.10;72.50
5520;DHT22;2782;52.362;10.012;2023-04-15T03:04:35;17.10;72.60
5520;DHT22;2782;52.362;10.012;2023-04-15T03:05:37;17.10;72.50
5520;DHT22;2782;52.362;10.012;2023-04-15T03:06:38;17.10;72.40
5520;DHT22;2782;52.362;10.012;2023-04-15T03:07:41;17.10;72.50
5520;DHT22;2782;52.362;10.012;2023-04-15T03:08:42;17.10;72.60
5520;DHT22;2782;52.362;10.012;2023-04-15T03:09:44;17.10;72.50
5520;DHT22;2782;52.362;10.012;2023-04-15T03:10:45;17.10;72.40
5520;DHT22;2782;52.362;10.012;2023-04-15T03:11:46;17.10;72.50
5520;DHT22;2782;52.362;10.012;2023-04-15T03:12:47;17.10;72.70
5520;DHT22;2782;52.362;10.012;2023-04-15T03:13:50;17.10;72.60
5520;DHT22;2782;52.362;10.012;2023-04-15T03:14:51;17.10;72.40
5520;DHT22;2782;52.362;10.012;2023-04-15T03:15:52;17.10;72.50
5520;DHT22;2782;52.362;10.012;2023-04-15T03:16:53;17.10;72.60
5520;DHT22;2782;52.362;10.012;2023-04-15T03:17:55;17.10;72.60
5520;DHT22;2782;52.362;10.012;2023-04-15T03:18:56;17.10;72.60
5520;DHT22;2782;52.362;10.012;2023-04-15T03:19:57;17.10;72.50
5520;DHT22;2782;52.362;10.012;2023-04-15T03:20:58;17.10;72.60
5520;DHT22;2782;52.362;10.012;2023-04-15T03:21:59;17.10;72.50
5520;DHT22;2782;52.362;10.012;2023-04-15T03:23:00;17.10;72.50
5520;DHT22;2782;52.362;10.012;2023-04-15T03:24:02;17.10;72.50
5520;DHT22;2782;52.362;10.012;2023-04-15T03:25:03;17.10;72.50
5520;DHT22;2782;52.362;10.012;2023-04-15T03:26:05;17.10;72.30
5520;DHT22;2782;52.362;10.012;2023-04-15T03:27:06;17.10;72.50
5520;DHT22;2782;52.362;10.012;2023-04-15T03:28:07;17.10;72.60
5520;DHT22;2782;52.362;10.012;2023-04-15T03:29:09;17.10;72.50
5520;DHT22;2782;52.362;10.012;2023-04-15T03:30:12;17.10;72.50
5520;DHT22;2782;52.362;10.012;2023-04-15T03:31:14;17.10;72.50
5520;DHT22;2782;52.362;10.012;2023-04-15T03:32:16;17.10;72.50
5520;DHT22;2782;52.362;10.012;2023-04-15T03:33:17;17.10;72.50
5520;DHT22;2782;52.362;10.012;2023-04-15T03:34:18;17.10;72.50
5520;DHT22;2782;52.362;10.012;2023-04-15T03:35:19;17.10;72.50
5520;DHT22;2782;52.362;10.012;2023-04-15T03:36:21;17.10;72.60
5520;DHT22;2782;52.362;10.012;2023-04-15T03:37:22;17.10;72.50
5520;DHT22;2782;52.362;10.012;2023-04-15T03:38:23;17.10;72.40
5520;DHT22;2782;52.362;10.012;2023-04-15T03:39:25;17.10;72.30
5520;DHT22;2782;52.362;10.012;2023-04-15T03:40:26;17.10;72.30
5520;DHT22;2782;52.362;10.012;2023-04-15T03:41:28;17.10;72.30
5520;DHT22;2782;52.362;10.012;2023-04-15T03:42:28;17.00;72.30
5520;DHT22;2782;52.362;10.012;2023-04-15T03:43:30;17.10;72.90
5520;DHT22;2782;52.362;10.012;2023-04-15T03:44:32;17.00;72.40
5520;DHT22;2782;52.362;10.012;2023-04-15T03:45:34;17.10;72.30
5520;DHT22;2782;52.362;10.012;2023-04-15T03:46:35;17.10;72.60
5520;DHT22;2782;52.362;10.012;2023-04-15T03:47:36;17.10;72.70
5520;DHT22;2782;52.362;10.012;2023-04-15T03:48:38;17.00;72.50
5520;DHT22;2782;52.362;10.012;2023-04-15T03:49:38;17.00;72.40
5520;DHT22;2782;52.362;10.012;2023-04-15T03:50:40;17.00;72.40
5520;DHT22;2782;52.362;10.012;2023-04-15T03:51:41;17.00;72.40
5520;DHT22;2782;52.362;10.012;2023-04-15T03:52:43;17.00;72.30
5520;DHT22;2782;52.362;10.012;2023-04-15T03:53:43;17.10;72.50
5520;DHT22;2782;52.362;10.012;2023-04-15T03:54:45;17.00;72.40
5520;DHT22;2782;52.362;10.012;2023-04-15T03:55:46;17.00;72.30
5520;DHT22;2782;52.362;10.012;2023-04-15T03:56:47;17.00;72.40
5520;DHT22;2782;52.362;10.012;2023-04-15T03:57:48;17.10;72.50
5520;DHT22;2782;52.362;10.012;2023-04-15T03:58:49;17.00;72.40
5520;DHT22;2782;52.362;10.012;2023-04-15T03:59:51;17.00;72.40
5520;DHT22;2782;52.362;10.012;2023-04-15T04:00:53;17.00;72.40
5520;DHT22;2782;52.362;10.012;2023-04-15T04:01:54;17.00;72.40
5520;DHT22;2782;52.362;10.012;2023-04-15T04:02:55;17.00;72.40
5520;DHT22;2782;52.362;10.012;2023-04-15T04:03:56;17.00;72.40
5520;DHT22;2782;52.362;10.012;2023-04-15T04:04:58;17.00;72.30
5520;DHT22;2782;52.362;10.012;2023-04-15T04:05:58;17.00;72.30
5520;DHT22;2782;52.362;10.012;2023-04-15T04:07:00;17.00;72.30
5520;DHT22;2782;52.362;10.012;2023-04-15T04:08:00;17.00;72.20
5520;DHT22;2782;52.362;10.012;2023-04-15T04:09:02;17.00;72.30
5520;DHT22;2782;52.362;10.012;2023-04-15T04:10:03;17.00;72.40
5520;DHT22;2782;52.362;10.012;2023-04-15T04:11:05;17.00;72.30
5520;DHT22;2782;52.362;10.012;2023-04-15T04:12:06;17.00;72.20
5520;DHT22;2782;52.362;10.012;2023-04-15T04:13:08;17.00;72.30
5520;DHT22;2782;52.362;10.012;2023-04-15T04:14:08;17.00;72.30
5520;DHT22;2782;52.362;10.012;2023-04-15T04:15:12;17.00;72.30
5520;DHT22;2782;52.362;10.012;2023-04-15T04:16:12;17.00;72.20
5520;DHT22;2782;52.362;10.012;2023-04-15T04:17:14;17.00;72.20
5520;DHT22;2782;52.362;10.012;2023-04-15T04:18:14;17.00;72.20
5520;DHT22;2782;52.362;10.012;2023-04-15T04:19:16;17.00;72.30
5520;DHT22;2782;52.362;10.012;2023-04-15T04:20:19;17.00;72.30
5520;DHT22;2782;52.362;10.012;2023-04-15T04:21:21;17.00;72.30
5520;DHT22;2782;52.362;10.012;2023-04-15T04:22:23;17.00;72.30
5520;DHT22;2782;52.362;10.012;2023-04-15T04:23:24;17.00;72.20
5520;DHT22;2782;52.362;10.012;2023-04-15T04:24:25;17.00;72.20
5520;DHT22;2782;52.362;10.012;2023-04-15T04:25:26;17.00;72.30
5520;DHT22;2782;52.362;10.012;2023-04-15T04:26:28;17.00;72.30
5520;DHT22;2782;52.362;10.012;2023-04-15T04:27:28;17.00;72.30
5520;DHT22;2782;52.362;10.012;2023-04-15T04:28:30;17.00;72.20
5520;DHT22;2782;52.362;10.012;2023-04-15T04:29:31;17.00;72.20
5520;DHT22;2782;52.362;10.012;2023-04-15T04:30:34;17.00;72.20
5520;DHT22;2782;52.362;10.012;2023-04-15T04:31:35;17.00;72.10
5520;DHT22;2782;52.362;10.012;2023-04-15T04:32:36;17.00;72.20
5520;DHT22;2782;52.362;10.012;2023-04-15T04:33:37;17.00;72.10
5520;DHT22;2782;52.362;10.012;2023-04-15T04:34:39;16.90;71.90
5520;DHT22;2782;52.362;10.012;2023-04-15T04:35:40;17.00;71.90
5520;DHT22;2782;52.362;10.012;2023-04-15T04:36:41;17.00;71.90
5520;DHT22;2782;52.362;10.012;2023-04-15T04:37:42;17.00;71.90
5520;DHT22;2782;52.362;10.012;2023-04-15T04:38:43;17.00;71.60
5520;DHT22;2782;52.362;10.012;2023-04-15T04:39:44;17.00;71.40
5520;DHT22;2782;52.362;10.012;2023-04-15T04:40:46;17.00;71.40
5520;DHT22;2782;52.362;10.012;2023-04-15T04:41:46;17.00;71.50
5520;DHT22;2782;52.362;10.012;2023-04-15T04:42:48;17.00;71.50
5520;DHT22;2782;52.362;10.012;2023-04-15T04:43:49;17.00;71.60
5520;DHT22;2782;52.362;10.012;2023-04-15T04:44:51;17.00;71.60
5520;DHT22;2782;52.362;10.012;2023-04-15T04:45:53;17.00;71.70
5520;DHT22;2782;52.362;10.012;2023-04-15T04:46:55;17.00;71.80
5520;DHT22;2782;52.362;10.012;2023-04-15T04:47:55;17.00;71.80
5520;DHT22;2782;52.362;10.012;2023-04-15T04:48:57;17.00;71.80
5520;DHT22;2782;52.362;10.012;2023-04-15T04:49:58;17.10;71.90
5520;DHT22;2782;52.362;10.012;2023-04-15T04:51:00;17.10;71.90
5520;DHT22;2782;52.362;10.012;2023-04-15T04:52:01;17.10;72.00
5520;DHT22;2782;52.362;10.012;2023-04-15T04:53:03;17.10;72.20
5520;DHT22;2782;52.362;10.012;2023-04-15T04:54:03;17.10;72.20
5520;DHT22;2782;52.362;10.012;2023-04-15T04:55:05;17.10;72.00
5520;DHT22;2782;52.362;10.012;2023-04-15T04:56:08;17.20;72.00
5520;DHT22;2782;52.362;10.012;2023-04-15T04:57:09;17.20;72.10
5520;DHT22;2782;52.362;10.012;2023-04-15T04:58:12;17.20;72.40
5520;DHT22;2782;52.362;10.012;2023-04-15T04:59:14;17.20;72.60
5520;DHT22;2782;52.362;10.012;2023-04-15T05:00:15;17.20;72.50
5520;DHT22;2782;52.362;10.012;2023-04-15T05:01:18;17.30;72.80
5520;DHT22;2782;52.362;10.012;2023-04-15T05:02:19;17.30;72.90
5520;DHT22;2782;52.362;10.012;2023-04-15T05:03:21;17.30;72.80
5520;DHT22;2782;52.362;10.012;2023-04-15T05:04:22;17.30;72.80
5520;DHT22;2782;52.362;10.012;2023-04-15T05:05:23;17.40;73.00
5520;DHT22;2782;52.362;10.012;2023-04-15T05:06:24;17.40;73.00
5520;DHT22;2782;52.362;10.012;2023-04-15T05:07:26;17.40;73.00
5520;DHT22;2782;52.362;10.012;2023-04-15T05:08:27;17.40;73.20
5520;DHT22;2782;52.362;10.012;2023-04-15T05:09:28;17.40;72.90
5520;DHT22;2782;52.362;10.012;2023-04-15T05:10:31;17.40;73.20
5520;DHT22;2782;52.362;10.012;2023-04-15T05:11:32;17.50;73.30
5520;DHT22;2782;52.362;10.012;2023-04-15T05:12:34;17.50;73.30
5520;DHT22;2782;52.362;10.012;2023-04-15T05:13:36;17.50;73.10
5520;DHT22;2782;52.362;10.012;2023-04-15T05:14:39;17.50;73.30
5520;DHT22;2782;52.362;10.012;2023-04-15T05:15:39;17.50;73.20
5520;DHT22;2782;52.362;10.012;2023-04-15T05:16:44;17.60;73.30
5520;DHT22;2782;52.362;10.012;2023-04-15T05:17:44;17.60;73.30
5520;DHT22;2782;52.362;10.012;2023-04-15T05:18:46;17.60;73.30
5520;DHT22;2782;52.362;10.012;2023-04-15T05:19:47;17.60;73.10
5520;DHT22;2782;52.362;10.012;2023-04-15T05:20:49;17.60;73.30
5520;DHT22;2782;52.362;10.012;2023-04-15T05:21:49;17.60;73.20
5520;DHT22;2782;52.362;10.012;2023-04-15T05:22:51;17.70;73.20
5520;DHT22;2782;52.362;10.012;2023-04-15T05:23:52;17.70;73.20
5520;DHT22;2782;52.362;10.012;2023-04-15T05:24:53;17.70;73.10
5520;DHT22;2782;52.362;10.012;2023-04-15T05:25:54;17.70;73.10
5520;DHT22;2782;52.362;10.012;2023-04-15T05:26:56;17.70;73.00
5520;DHT22;2782;52.362;10.012;2023-04-15T05:27:56;17.70;73.10
5520;DHT22;2782;52.362;10.012;2023-04-15T05:28:58;17.70;73.00
5520;DHT22;2782;52.362;10.012;2023-04-15T05:29:59;17.80;73.00
5520;DHT22;2782;52.362;10.012;2023-04-15T05:31:01;17.80;73.10
5520;DHT22;2782;52.362;10.012;2023-04-15T05:32:03;17.80;73.00
5520;DHT22;2782;52.362;10.012;2023-04-15T05:33:05;17.80;73.00
5520;DHT22;2782;52.362;10.012;2023-04-15T05:34:06;17.80;73.00
5520;DHT22;2782;52.362;10.012;2023-04-15T05:35:08;17.80;72.90
5520;DHT22;2782;52.362;10.012;2023-04-15T05:36:09;17.80;72.80
5520;DHT22;2782;52.362;10.012;2023-04-15T05:37:11;17.90;73.60
5520;DHT22;2782;52.362;10.012;2023-04-15T05:38:12;17.80;72.80
5520;DHT22;2782;52.362;10.012;2023-04-15T05:39:13;17.90;72.90
5520;DHT22;2782;52.362;10.012;2023-04-15T05:40:14;17.90;72.90
5520;DHT22;2782;52.362;10.012;2023-04-15T05:41:16;17.90;72.90
5520;DHT22;2782;52.362;10.012;2023-04-15T05:42:18;17.90;72.80
5520;DHT22;2782;52.362;10.012;2023-04-15T05:43:19;17.90;72.80
5520;DHT22;2782;52.362;10.012;2023-04-15T05:44:21;17.90;72.80
5520;DHT22;2782;52.362;10.012;2023-04-15T05:45:22;17.90;72.70
5520;DHT22;2782;52.362;10.012;2023-04-15T05:46:23;17.90;72.70
5520;DHT22;2782;52.362;10.012;2023-04-15T05:47:26;17.90;72.70
5520;DHT22;2782;52.362;10.012;2023-04-15T05:48:26;17.90;72.70
5520;DHT22;2782;52.362;10.012;2023-04-15T05:49:28;17.90;72.60
5520;DHT22;2782;52.362;10.012;2023-04-15T05:50:29;17.90;72.60
5520;DHT22;2782;52.362;10.012;2023-04-15T05:51:30;17.90;72.60
5520;DHT22;2782;52.362;10.012;2023-04-15T05:52:31;17.90;72.50
5520;DHT22;2782;52.362;10.012;2023-04-15T05:53:33;17.90;72.30
5520;DHT22;2782;52.362;10.012;2023-04-15T05:54:33;17.90;72.40
5520;DHT22;2782;52.362;10.012;2023-04-15T05:55:36;17.90;72.50
5520;DHT22;2782;52.362;10.012;2023-04-15T05:56:36;18.00;72.70
5520;DHT22;2782;52.362;10.012;2023-04-15T05:57:38;18.00;72.70
5520;DHT22;2782;52.362;10.012;2023-04-15T05:58:39;17.90;72.60
5520;DHT22;2782;52.362;10.012;2023-04-15T05:59:40;18.00;72.60
5520;DHT22;2782;52.362;10.012;2023-04-15T06:00:41;18.00;72.60
5520;DHT22;2782;52.362;10.012;2023-04-15T06:01:45;18.00;72.60
5520;DHT22;2782;52.362;10.012;2023-04-15T06:02:47;18.00;72.60
5520;DHT22;2782;52.362;10.012;2023-04-15T06:03:49;18.00;72.60
5520;DHT22;2782;52.362;10.012;2023-04-15T06:04:51;18.00;72.50
5520;DHT22;2782;52.362;10.012;2023-04-15T06:05:53;18.00;72.60
5520;DHT22;2782;52.362;10.012;2023-04-15T06:06:53;18.00;72.50
5520;DHT22;2782;52.362;10.012;2023-04-15T06:07:55;18.00;72.50
5520;DHT22;2782;52.362;10.012;2023-04-15T06:08:56;18.00;72.50
5520;DHT22;2782;52.362;10.012;2023-04-15T06:09:57;18.00;72.40
5520;DHT22;2782;52.362;10.012;2023-04-15T06:10:58;18.00;72.40
5520;DHT22;2782;52.362;10.012;2023-04-15T06:12:00;18.00;72.40
5520;DHT22;2782;52.362;10.012;2023-04-15T06:13:01;18.00;72.40
5520;DHT22;2782;52.362;10.012;2023-04-15T06:14:03;18.00;72.40
5520;DHT22;2782;52.362;10.012;2023-04-15T06:15:05;18.00;72.40
5520;DHT22;2782;52.362;10.012;2023-04-15T06:16:09;18.00;72.40
5520;DHT22;2782;52.362;10.012;2023-04-15T06:17:10;18.00;72.40
5520;DHT22;2782;52.362;10.012;2023-04-15T06:18:15;18.00;72.40
5520;DHT22;2782;52.362;10.012;2023-04-15T06:19:16;18.00;72.40
5520;DHT22;2782;52.362;10.012;2023-04-15T06:20:18;17.90;72.30
5520;DHT22;2782;52.362;10.012;2023-04-15T06:21:20;18.00;72.30
5520;DHT22;2782;52.362;10.012;2023-04-15T06:22:21;18.00;72.40
5520;DHT22;2782;52.362;10.012;2023-04-15T06:23:23;17.90;72.30
5520;DHT22;2782;52.362;10.012;2023-04-15T06:24:23;17.90;72.20
5520;DHT22;2782;52.362;10.012;2023-04-15T06:25:25;17.90;72.20
5520;DHT22;2782;52.362;10.012;2023-04-15T06:26:26;17.90;72.20
5520;DHT22;2782;52.362;10.012;2023-04-15T06:27:27;17.90;72.20
5520;DHT22;2782;52.362;10.012;2023-04-15T06:28:28;17.90;72.20
5520;DHT22;2782;52.362;10.012;2023-04-15T06:29:30;17.90;72.20
5520;DHT22;2782;52.362;10.012;2023-04-15T06:30:31;17.90;72.20
5520;DHT22;2782;52.362;10.012;2023-04-15T06:31:32;17.90;72.30
5520;DHT22;2782;52.362;10.012;2023-04-15T06:32:33;17.90;72.30
5520;DHT22;2782;52.362;10.012;2023-04-15T06:33:36;17.90;72.30
5520;DHT22;2782;52.362;10.012;2023-04-15T06:34:37;17.90;72.30